sensor_id;sensor_type;location;lat;lon;timestamp;pressure;altitude;pressure_sealevel;temperature;humidity
51829;BME280;37881;48.024;8.774;2024-01-11T00:00:32;94553.06;;;-5.46;100.00
51829;BME280;37881;48.024;8.774;2024-01-11T00:02:59;94557.69;;;-5.52;100.00
51829;BME280;37881;48.024;8.774;2024-01-11T00:05:26;94555.16;;;-5.43;100.00
51829;BME280;37881;48.024;8.774;2024-01-11T00:07:53;94549.09;;;-5.35;100.00
51829;BME280;37881;48.024;8.774;2024-01-11T00:10:20;94552.25;;;-5.33;100.00
51829;BME280;37881;48.024;8.774;2024-01-11T00:12:47;94550.78;;;-5.39;100.00
51829;BME280;37881;48.024;8.774;2024-01-11T00:15:14;94558.00;;;-5.53;100.00
51829;BME280;37881;48.024;8.774;2024-01-11T00:17:41;94554.34;;;-5.57;100.00
51829;BME280;37881;48.024;8.774;2024-01-11T00:20:08;94557.22;;;-5.54;100.00
51829;BME280;37881;48.024;8.774;2024-01-11T00:22:36;94554.94;;;-5.60;100.00
51829;BME280;37881;48.024;8.774;2024-01-11T00:25:03;94562.28;;;-5.66;100.00
51829;BME280;37881;48.024;8.774;2024-01-11T00:27:30;94563.38;;;-5.67;100.00
51829;BME280;37881;48.024;8.774;2024-01-11T00:29:57;94561.38;;;-5.62;100.00
51829;BME280;37881;48.024;8.774;2024-01-11T00:32:24;94560.50;;;-5.57;100.00
51829;BME280;37881;48.024;8.774;2024-01-11T00:34:51;94564.44;;;-5.54;100.00
51829;BME280;37881;48.024;8.774;2024-01-11T00:37:17;94563.75;;;-5.60;100.00
51829;BME280;37881;48.024;8.774;2024-01-11T00:39:44;94559.19;;;-5.59;100.00
51829;BME280;37881;48.024;8.774;2024-01-11T00:42:11;94558.53;;;-5.65;100.00
51829;BME280;37881;48.024;8.774;2024-01-11T00:44:38;94555.34;;;-5.67;100.00
51829;BME280;37881;48.024;8.774;2024-01-11T00:47:05;94559.38;;;-5.70;100.00
51829;BME280;37881;48.024;8.774;2024-01-11T00:49:32;94553.94;;;-5.78;100.00
51829;BME280;37881;48.024;8.774;2024-01-11T00:51:59;94558.00;;;-5.81;100.00
51829;BME280;37881;48.024;8.774;2024-01-11T00:54:26;94561.06;;;-5.88;100.00
51829;BME280;37881;48.024;8.774;2024-01-11T00:56:53;94560.28;;;-6.02;100.00
51829;BME280;37881;48.024;8.774;2024-01-11T00:59:19;94559.50;;;-6.03;100.00
51829;BME280;37881;48.024;8.774;2024-01-11T01:01:48;94563.34;;;-6.09;100.00
51829;BME280;37881;48.024;8.774;2024-01-11T01:04:15;94565.53;;;-6.11;100.00
51829;BME280;37881;48.024;8.774;2024-01-11T01:06:43;94567.47;;;-6.16;100.00
51829;BME280;37881;48.024;8.774;2024-01-11T01:09:10;94565.72;;;-6.07;100.00
51829;BME280;37881;48.024;8.774;2024-01-11T01:11:37;94564.91;;;-6.08;100.00
51829;BME280;37881;48.024;8.774;2024-01-11T01:14:04;94567.03;;;-6.05;100.00
51829;BME280;37881;48.024;8.774;2024-01-11T01:16:31;94571.28;;;-6.04;100.00
51829;BME280;37881;48.024;8.774;2024-01-11T01:18:58;94568.31;;;-6.02;100.00
51829;BME280;37881;48.024;8.774;2024-01-11T01:21:25;94564.34;;;-6.05;100.00
51829;BME280;37881;48.024;8.774;2024-01-11T01:23:52;94573.84;;;-5.98;100.00
51829;BME280;37881;48.024;8.774;2024-01-11T01:26:19;94574.97;;;-5.99;100.00
51829;BME280;37881;48.024;8.774;2024-01-11T01:28:46;94572.94;;;-6.21;100.00
51829;BME280;37881;48.024;8.774;2024-01-11T01:31:13;94564.16;;;-6.41;100.00
51829;BME280;37881;48.024;8.774;2024-01-11T01:33:40;94579.41;;;-6.41;100.00
51829;BME280;37881;48.024;8.774;2024-01-11T01:36:09;94567.94;;;-6.61;100.00
51829;BME280;37881;48.024;8.774;2024-01-11T01:38:36;94569.84;;;-6.61;100.00
51829;BME280;37881;48.024;8.774;2024-01-11T01:41:03;94575.59;;;-6.54;100.00
51829;BME280;37881;48.024;8.774;2024-01-11T01:43:30;94579.06;;;-6.54;100.00
51829;BME280;37881;48.024;8.774;2024-01-11T01:45:57;94580.91;;;-6.54;100.00
51829;BME280;37881;48.024;8.774;2024-01-11T01:48:25;94574.81;;;-6.55;100.00
51829;BME280;37881;48.024;8.774;2024-01-11T01:50:52;94575.81;;;-6.51;100.00
51829;BME280;37881;48.024;8.774;2024-01-11T01:53:19;94579.34;;;-6.55;100.00
51829;BME280;37881;48.024;8.774;2024-01-11T01:55:49;94585.78;;;-6.75;100.00
51829;BME280;37881;48.024;8.774;2024-01-11T01:58:17;94590.34;;;-6.76;100.00
51829;BME280;37881;48.024;8.774;2024-01-11T02:00:45;94580.00;;;-6.64;100.00
51829;BME280;37881;48.024;8.774;2024-01-11T02:03:14;94586.03;;;-6.58;100.00
51829;BME280;37881;48.024;8.774;2024-01-11T02:05:42;94583.75;;;-6.65;100.00
51829;BME280;37881;48.024;8.774;2024-01-11T02:08:12;94585.78;;;-6.94;100.00
51829;BME280;37881;48.024;8.774;2024-01-11T02:10:42;94591.56;;;-7.06;100.00
51829;BME280;37881;48.024;8.774;2024-01-11T02:13:10;94596.31;;;-7.03;100.00
51829;BME280;37881;48.024;8.774;2024-01-11T02:15:37;94591.13;;;-6.94;100.00
51829;BME280;37881;48.024;8.774;2024-01-11T02:18:04;94585.84;;;-7.18;100.00
51829;BME280;37881;48.024;8.774;2024-01-11T02:20:31;94589.41;;;-7.04;100.00
51829;BME280;37881;48.024;8.774;2024-01-11T02:23:06;94584.72;;;-6.93;100.00
51829;BME280;37881;48.024;8.774;2024-01-11T02:25:34;94587.75;;;-6.81;100.00
51829;BME280;37881;48.024;8.774;2024-01-11T02:28:01;94593.81;;;-6.75;100.00
51829;BME280;37881;48.024;8.774;2024-01-11T02:30:28;94584.13;;;-6.90;100.00
51829;BME280;37881;48.024;8.774;2024-01-11T02:32:55;94583.84;;;-6.70;100.00
51829;BME280;37881;48.024;8.774;2024-01-11T02:35:23;94584.19;;;-6.57;100.00
51829;BME280;37881;48.024;8.774;2024-01-11T02:37:51;94590.97;;;-6.65;100.00
51829;BME280;37881;48.024;8.774;2024-01-11T02:40:18;94589.47;;;-6.71;100.00
51829;BME280;37881;48.024;8.774;2024-01-11T02:42:46;94595.31;;;-6.69;100.00
51829;BME280;37881;48.024;8.774;2024-01-11T02:45:12;94596.44;;;-6.56;100.00
51829;BME280;37881;48.024;8.774;2024-01-11T02:47:39;94600.78;;;-6.41;100.00
51829;BME280;37881;48.024;8.774;2024-01-11T02:50:07;94596.78;;;-6.44;100.00
51829;BME280;37881;48.024;8.774;2024-01-11T02:52:34;94592.31;;;-6.49;100.00
51829;BME280;37881;48.024;8.774;2024-01-11T02:55:02;94591.59;;;-6.54;100.00
51829;BME280;37881;48.024;8.774;2024-01-11T02:57:28;94592.25;;;-6.63;100.00
51829;BME280;37881;48.024;8.774;2024-01-11T02:59:55;94596.69;;;-6.72;100.00
51829;BME280;37881;48.024;8.774;2024-01-11T03:02:22;94589.81;;;-6.59;100.00
51829;BME280;37881;48.024;8.774;2024-01-11T03:04:49;94589.28;;;-6.42;100.00
51829;BME280;37881;48.024;8.774;2024-01-11T03:07:15;94582.06;;;-6.41;100.00
51829;BME280;37881;48.024;8.774;2024-01-11T03:09:42;94588.75;;;-6.77;100.00
51829;BME280;37881;48.024;8.774;2024-01-11T03:12:09;94584.22;;;-6.95;100.00
51829;BME280;37881;48.024;8.774;2024-01-11T03:14:36;94582.59;;;-6.58;100.00
51829;BME280;37881;48.024;8.774;2024-01-11T03:17:03;94581.69;;;-6.35;100.00
51829;BME280;37881;48.024;8.774;2024-01-11T03:19:29;94581.53;;;-6.25;100.00
51829;BME280;37881;48.024;8.774;2024-01-11T03:21:56;94578.06;;;-6.25;100.00
51829;BME280;37881;48.024;8.774;2024-01-11T03:24:23;94574.00;;;-6.23;100.00
51829;BME280;37881;48.024;8.774;2024-01-11T03:26:50;94567.78;;;-6.18;100.00
51829;BME280;37881;48.024;8.774;2024-01-11T03:29:17;94572.16;;;-6.08;100.00
51829;BME280;37881;48.024;8.774;2024-01-11T03:31:44;94573.25;;;-6.09;100.00
51829;BME280;37881;48.024;8.774;2024-01-11T03:34:11;94565.09;;;-6.18;100.00
51829;BME280;37881;48.024;8.774;2024-01-11T03:36:39;94565.78;;;-6.26;100.00
51829;BME280;37881;48.024;8.774;2024-01-11T03:39:06;94571.72;;;-6.29;100.00
51829;BME280;37881;48.024;8.774;2024-01-11T03:41:33;94567.00;;;-6.18;100.00
51829;BME280;37881;48.024;8.774;2024-01-11T03:44:00;94573.38;;;-6.33;100.00
51829;BME280;37881;48.024;8.774;2024-01-11T03:46:27;94562.00;;;-6.39;100.00
51829;BME280;37881;48.024;8.774;2024-01-11T03:48:54;94561.53;;;-6.27;100.00
51829;BME280;37881;48.024;8.774;2024-01-11T03:51:22;94550.19;;;-6.19;100.00
51829;BME280;37881;48.024;8.774;2024-01-11T03:53:49;94559.56;;;-6.08;100.00
51829;BME280;37881;48.024;8.774;2024-01-11T03:56:16;94560.69;;;-6.09;100.00
51829;BME280;37881;48.024;8.774;2024-01-11T03:58:43;94565.53;;;-6.11;100.00
51829;BME280;37881;48.024;8.774;2024-01-11T04:01:11;94569.44;;;-6.22;100.00
51829;BME280;37881;48.024;8.774;2024-01-11T04:03:38;94568.09;;;-6.19;100.00
51829;BME280;37881;48.024;8.774;2024-01-11T04:06:05;94560.44;;;-6.26;100.00
51829;BME280;37881;48.024;8.774;2024-01-11T04:08:33;94563.00;;;-6.35;100.00
51829;BME280;37881;48.024;8.774;2024-01-11T04:11:03;94558.56;;;-6.26;100.00
51829;BME280;37881;48.024;8.774;2024-01-11T04:13:33;94557.72;;;-6.54;100.00
51829;BME280;37881;48.024;8.774;2024-01-11T04:16:04;94556.22;;;-6.46;100.00
51829;BME280;37881;48.024;8.774;2024-01-11T04:18:31;94558.16;;;-6.66;100.00
51829;BME280;37881;48.024;8.774;2024-01-11T04:20:58;94558.03;;;-7.12;100.00
51829;BME280;37881;48.024;8.774;2024-01-11T04:23:25;94556.66;;;-6.72;100.00
51829;BME280;37881;48.024;8.774;2024-01-11T04:25:51;94548.47;;;-6.61;100.00
51829;BME280;37881;48.024;8.774;2024-01-11T04:28:18;94553.16;;;-6.53;100.00
51829;BME280;37881;48.024;8.774;2024-01-11T04:30:45;94557.56;;;-6.63;100.00
51829;BME280;37881;48.024;8.774;2024-01-11T04:33:15;94556.34;;;-6.70;100.00
51829;BME280;37881;48.024;8.774;2024-01-11T04:35:42;94554.88;;;-6.63;100.00
51829;BME280;37881;48.024;8.774;2024-01-11T04:38:09;94550.94;;;-6.65;100.00
51829;BME280;37881;48.024;8.774;2024-01-11T04:40:35;94548.34;;;-6.70;100.00
51829;BME280;37881;48.024;8.774;2024-01-11T04:43:02;94543.81;;;-6.70;100.00
51829;BME280;37881;48.024;8.774;2024-01-11T04:45:29;94549.47;;;-6.57;100.00
51829;BME280;37881;48.024;8.774;2024-01-11T04:47:56;94552.69;;;-6.41;100.00
51829;BME280;37881;48.024;8.774;2024-01-11T04:50:23;94540.41;;;-6.43;100.00
51829;BME280;37881;48.024;8.774;2024-01-11T04:52:50;94541.13;;;-6.37;100.00
51829;BME280;37881;48.024;8.774;2024-01-11T04:55:17;94544.88;;;-6.38;100.00
51829;BME280;37881;48.024;8.774;2024-01-11T04:57:44;94553.19;;;-6.39;100.00
51829;BME280;37881;48.024;8.774;2024-01-11T05:00:11;94541.13;;;-6.37;100.00
51829;BME280;37881;48.024;8.774;2024-01-11T05:02:37;94541.19;;;-6.42;100.00
51829;BME280;37881;48.024;8.774;2024-01-11T05:05:04;94537.19;;;-6.39;100.00
51829;BME280;37881;48.024;8.774;2024-01-11T05:07:31;94532.63;;;-6.39;100.00
51829;BME280;37881;48.024;8.774;2024-01-11T05:09:58;94539.22;;;-6.50;100.00
51829;BME280;37881;48.024;8.774;2024-01-11T05:12:25;94537.97;;;-6.39;100.00
51829;BME280;37881;48.024;8.774;2024-01-11T05:14:52;94536.97;;;-6.43;100.00
51829;BME280;37881;48.024;8.774;2024-01-11T05:17:18;94540.41;;;-6.43;100.00
51829;BME280;37881;48.024;8.774;2024-01-11T05:19:45;94538.91;;;-6.49;100.00
51829;BME280;37881;48.024;8.774;2024-01-11T05:22:12;94542.47;;;-6.53;100.00
51829;BME280;37881;48.024;8.774;2024-01-11T05:24:39;94546.31;;;-6.59;100.00
51829;BME280;37881;48.024;8.774;2024-01-11T05:27:05;94540.31;;;-6.70;100.00
51829;BME280;37881;48.024;8.774;2024-01-11T05:29:32;94536.13;;;-6.57;100.00
51829;BME280;37881;48.024;8.774;2024-01-11T05:31:59;94538.22;;;-6.54;100.00
51829;BME280;37881;48.024;8.774;2024-01-11T05:34:26;94542.69;;;-6.50;100.00
51829;BME280;37881;48.024;8.774;2024-01-11T05:36:53;94541.63;;;-6.68;100.00
51829;BME280;37881;48.024;8.774;2024-01-11T05:39:20;94549.50;;;-6.76;100.00
51829;BME280;37881;48.024;8.774;2024-01-11T05:41:47;94552.88;;;-6.71;100.00
51829;BME280;37881;48.024;8.774;2024-01-11T05:44:14;94556.50;;;-6.80;100.00
51829;BME280;37881;48.024;8.774;2024-01-11T05:46:41;94558.19;;;-7.04;100.00
51829;BME280;37881;48.024;8.774;2024-01-11T05:49:08;94562.50;;;-6.89;100.00
51829;BME280;37881;48.024;8.774;2024-01-11T05:51:35;94561.28;;;-6.77;100.00
51829;BME280;37881;48.024;8.774;2024-01-11T05:54:01;94563.38;;;-6.93;100.00
51829;BME280;37881;48.024;8.774;2024-01-11T05:56:28;94558.09;;;-6.79;100.00
51829;BME280;37881;48.024;8.774;2024-01-11T05:58:55;94570.50;;;-6.70;100.00
51829;BME280;37881;48.024;8.774;2024-01-11T06:01:22;94565.34;;;-6.66;100.00
51829;BME280;37881;48.024;8.774;2024-01-11T06:03:48;94562.66;;;-6.47;100.00
51829;BME280;37881;48.024;8.774;2024-01-11T06:06:15;94569.72;;;-6.37;100.00
51829;BME280;37881;48.024;8.774;2024-01-11T06:08:42;94564.66;;;-6.39;100.00
51829;BME280;37881;48.024;8.774;2024-01-11T06:11:10;94570.50;;;-6.37;100.00
51829;BME280;37881;48.024;8.774;2024-01-11T06:13:40;94562.22;;;-6.35;100.00
51829;BME280;37881;48.024;8.774;2024-01-11T06:16:07;94563.44;;;-6.47;100.00
51829;BME280;37881;48.024;8.774;2024-01-11T06:18:38;94566.41;;;-6.48;100.00
51829;BME280;37881;48.024;8.774;2024-01-11T06:21:05;94560.06;;;-6.52;100.00
51829;BME280;37881;48.024;8.774;2024-01-11T06:23:32;94561.63;;;-6.65;100.00
51829;BME280;37881;48.024;8.774;2024-01-11T06:25:59;94571.06;;;-6.73;100.00
51829;BME280;37881;48.024;8.774;2024-01-11T06:28:26;94579.56;;;-6.71;100.00
51829;BME280;37881;48.024;8.774;2024-01-11T06:30:53;94570.00;;;-6.72;100.00
51829;BME280;37881;48.024;8.774;2024-01-11T06:33:20;94579.66;;;-6.76;100.00
51829;BME280;37881;48.024;8.774;2024-01-11T06:35:47;94587.28;;;-6.88;100.00
51829;BME280;37881;48.024;8.774;2024-01-11T06:38:14;94579.72;;;-6.81;100.00
51829;BME280;37881;48.024;8.774;2024-01-11T06:40:41;94584.63;;;-6.69;100.00
51829;BME280;37881;48.024;8.774;2024-01-11T06:43:08;94589.31;;;-6.61;100.00
51829;BME280;37881;48.024;8.774;2024-01-11T06:45:35;94582.81;;;-6.55;100.00
51829;BME280;37881;48.024;8.774;2024-01-11T06:48:01;94586.69;;;-6.47;100.00
51829;BME280;37881;48.024;8.774;2024-01-11T06:50:29;94594.16;;;-6.63;100.00
51829;BME280;37881;48.024;8.774;2024-01-11T06:52:56;94605.59;;;-6.63;100.00
51829;BME280;37881;48.024;8.774;2024-01-11T06:55:22;94607.22;;;-6.61;100.00
51829;BME280;37881;48.024;8.774;2024-01-11T06:57:49;94608.06;;;-6.66;100.00
51829;BME280;37881;48.024;8.774;2024-01-11T07:00:16;94603.72;;;-6.62;100.00
51829;BME280;37881;48.024;8.774;2024-01-11T07:02:43;94597.25;;;-6.56;100.00
51829;BME280;37881;48.024;8.774;2024-01-11T07:05:09;94613.97;;;-6.50;100.00
51829;BME280;37881;48.024;8.774;2024-01-11T07:07:37;94605.88;;;-6.45;100.00
51829;BME280;37881;48.024;8.774;2024-01-11T07:10:04;94609.47;;;-6.36;100.00
51829;BME280;37881;48.024;8.774;2024-01-11T07:12:32;94617.84;;;-6.43;100.00
51829;BME280;37881;48.024;8.774;2024-01-11T07:14:59;94620.69;;;-6.53;100.00
51829;BME280;37881;48.024;8.774;2024-01-11T07:17:26;94615.47;;;-6.44;100.00
51829;BME280;37881;48.024;8.774;2024-01-11T07:19:53;94620.53;;;-6.43;100.00
51829;BME280;37881;48.024;8.774;2024-01-11T07:22:20;94617.69;;;-6.32;100.00
51829;BME280;37881;48.024;8.774;2024-01-11T07:24:46;94614.75;;;-6.31;100.00
51829;BME280;37881;48.024;8.774;2024-01-11T07:27:13;94616.53;;;-6.26;100.00
51829;BME280;37881;48.024;8.774;2024-01-11T07:29:41;94621.88;;;-6.26;100.00
51829;BME280;37881;48.024;8.774;2024-01-11T07:32:08;94636.66;;;-6.48;100.00
51829;BME280;37881;48.024;8.774;2024-01-11T07:34:35;94638.00;;;-6.88;100.00
51829;BME280;37881;48.024;8.774;2024-01-11T07:37:03;94631.53;;;-6.63;100.00
51829;BME280;37881;48.024;8.774;2024-01-11T07:39:30;94628.41;;;-6.51;100.00
51829;BME280;37881;48.024;8.774;2024-01-11T07:41:57;94642.75;;;-6.66;100.00
51829;BME280;37881;48.024;8.774;2024-01-11T07:44:24;94638.66;;;-6.39;100.00
51829;BME280;37881;48.024;8.774;2024-01-11T07:46:51;94643.13;;;-6.35;100.00
51829;BME280;37881;48.024;8.774;2024-01-11T07:49:21;94641.00;;;-6.38;100.00
51829;BME280;37881;48.024;8.774;2024-01-11T07:51:48;94644.75;;;-6.20;100.00
51829;BME280;37881;48.024;8.774;2024-01-11T07:54:15;94645.84;;;-6.21;100.00
51829;BME280;37881;48.024;8.774;2024-01-11T07:56:42;94656.47;;;-6.35;100.00
51829;BME280;37881;48.024;8.774;2024-01-11T07:59:09;94655.63;;;-6.49;100.00
51829;BME280;37881;48.024;8.774;2024-01-11T08:01:41;94656.59;;;-6.26;100.00
51829;BME280;37881;48.024;8.774;2024-01-11T08:04:08;94648.41;;;-6.16;100.00
51829;BME280;37881;48.024;8.774;2024-01-11T08:06:35;94654.75;;;-6.12;100.00
51829;BME280;37881;48.024;8.774;2024-01-11T08:09:02;94656.19;;;-6.00;100.00
51829;BME280;37881;48.024;8.774;2024-01-11T08:11:31;94655.19;;;-6.05;100.00
51829;BME280;37881;48.024;8.774;2024-01-11T08:14:04;94654.88;;;-6.17;100.00
51829;BME280;37881;48.024;8.774;2024-01-11T08:16:32;94677.91;;;-6.21;100.00
51829;BME280;37881;48.024;8.774;2024-01-11T08:18:59;94684.31;;;-6.22;100.00
51829;BME280;37881;48.024;8.774;2024-01-11T08:21:27;94679.25;;;-5.91;100.00
51829;BME280;37881;48.024;8.774;2024-01-11T08:23:55;94679.38;;;-5.96;100.00
51829;BME280;37881;48.024;8.774;2024-01-11T08:26:28;94686.03;;;-6.12;100.00
51829;BME280;37881;48.024;8.774;2024-01-11T08:28:56;94681.75;;;-5.80;100.00
51829;BME280;37881;48.024;8.774;2024-01-11T08:31:23;94682.53;;;-5.80;100.00
51829;BME280;37881;48.024;8.774;2024-01-11T08:33:50;94682.63;;;-5.99;100.00
51829;BME280;37881;48.024;8.774;2024-01-11T08:36:17;94679.31;;;-6.10;100.00
51829;BME280;37881;48.024;8.774;2024-01-11T08:38:44;94675.06;;;-5.64;100.00
51829;BME280;37881;48.024;8.774;2024-01-11T08:41:11;94667.66;;;-5.26;100.00
51829;BME280;37881;48.024;8.774;2024-01-11T08:43:38;94668.75;;;-5.54;100.00
51829;BME280;37881;48.024;8.774;2024-01-11T08:46:06;94671.50;;;-5.73;100.00
51829;BME280;37881;48.024;8.774;2024-01-11T08:48:32;94670.75;;;-5.32;100.00
51829;BME280;37881;48.024;8.774;2024-01-11T08:51:00;94663.00;;;-5.48;100.00
51829;BME280;37881;48.024;8.774;2024-01-11T08:53:27;94664.97;;;-4.70;100.00
51829;BME280;37881;48.024;8.774;2024-01-11T08:55:54;94665.81;;;-4.61;100.00
51829;BME280;37881;48.024;8.774;2024-01-11T08:58:21;94669.84;;;-4.72;100.00
51829;BME280;37881;48.024;8.774;2024-01-11T09:00:47;94673.31;;;-4.99;100.00
51829;BME280;37881;48.024;8.774;2024-01-11T09:03:14;94685.13;;;-4.36;100.00
51829;BME280;37881;48.024;8.774;2024-01-11T09:05:43;94691.41;;;-4.55;100.00
51829;BME280;37881;48.024;8.774;2024-01-11T09:08:10;94685.31;;;-4.33;100.00
51829;BME280;37881;48.024;8.774;2024-01-11T09:10:37;94688.31;;;-4.98;100.00
51829;BME280;37881;48.024;8.774;2024-01-11T09:13:04;94691.69;;;-4.93;100.00
51829;BME280;37881;48.024;8.774;2024-01-11T09:15:31;94683.03;;;-5.45;100.00
51829;BME280;37881;48.024;8.774;2024-01-11T09:17:59;94685.22;;;-5.19;100.00
51829;BME280;37881;48.024;8.774;2024-01-11T09:20:27;94687.81;;;-4.87;100.00
51829;BME280;37881;48.024;8.774;2024-01-11T09:22:54;94689.88;;;-4.97;100.00
51829;BME280;37881;48.024;8.774;2024-01-11T09:25:21;94691.69;;;-5.07;100.00
51829;BME280;37881;48.024;8.774;2024-01-11T09:27:49;94691.59;;;-6.09;100.00
51829;BME280;37881;48.024;8.774;2024-01-11T09:30:16;94695.50;;;-5.87;100.00
51829;BME280;37881;48.024;8.774;2024-01-11T09:32:43;94695.28;;;-5.58;100.00
51829;BME280;37881;48.024;8.774;2024-01-11T09:35:10;94699.25;;;-4.08;100.00
51829;BME280;37881;48.024;8.774;2024-01-11T09:37:41;94701.47;;;-4.88;100.00
51829;BME280;37881;48.024;8.774;2024-01-11T09:40:10;94704.44;;;-4.62;100.00
51829;BME280;37881;48.024;8.774;2024-01-11T09:42:38;94711.50;;;-4.30;100.00
51829;BME280;37881;48.024;8.774;2024-01-11T09:45:12;94724.97;;;-4.21;100.00
51829;BME280;37881;48.024;8.774;2024-01-11T09:47:40;94742.53;;;-4.93;100.00
51829;BME280;37881;48.024;8.774;2024-01-11T09:50:07;94743.91;;;-4.95;100.00
51829;BME280;37881;48.024;8.774;2024-01-11T09:52:36;94737.47;;;-5.08;100.00
51829;BME280;37881;48.024;8.774;2024-01-11T09:55:05;94742.38;;;-4.18;100.00
51829;BME280;37881;48.024;8.774;2024-01-11T09:57:32;94738.56;;;-3.81;100.00
51829;BME280;37881;48.024;8.774;2024-01-11T10:00:03;94733.56;;;-2.89;100.00
51829;BME280;37881;48.024;8.774;2024-01-11T10:02:30;94730.91;;;-2.14;100.00
51829;BME280;37881;48.024;8.774;2024-01-11T10:04:57;94729.59;;;-3.76;100.00
51829;BME280;37881;48.024;8.774;2024-01-11T10:07:24;94727.97;;;-3.86;100.00
51829;BME280;37881;48.024;8.774;2024-01-11T10:09:51;94727.16;;;-4.23;100.00
51829;BME280;37881;48.024;8.774;2024-01-11T10:12:22;94721.63;;;-3.14;100.00
51829;BME280;37881;48.024;8.774;2024-01-11T10:14:52;94717.03;;;-2.73;100.00
51829;BME280;37881;48.024;8.774;2024-01-11T10:17:19;94707.66;;;-1.49;100.00
51829;BME280;37881;48.024;8.774;2024-01-11T10:19:53;94700.22;;;-1.95;100.00
51829;BME280;37881;48.024;8.774;2024-01-11T10:22:20;94706.81;;;-3.03;100.00
51829;BME280;37881;48.024;8.774;2024-01-11T10:24:50;94709.88;;;-1.68;100.00
51829;BME280;37881;48.024;8.774;2024-01-11T10:27:17;94703.94;;;-3.06;100.00
51829;BME280;37881;48.024;8.774;2024-01-11T10:29:45;94705.94;;;-1.97;100.00
51829;BME280;37881;48.024;8.774;2024-01-11T10:32:13;94694.34;;;-0.59;100.00
51829;BME280;37881;48.024;8.774;2024-01-11T10:34:40;94697.69;;;-0.92;100.00
51829;BME280;37881;48.024;8.774;2024-01-11T10:37:08;94694.63;;;-0.82;100.00
51829;BME280;37881;48.024;8.774;2024-01-11T10:39:38;94692.16;;;-1.78;100.00
51829;BME280;37881;48.024;8.774;2024-01-11T10:42:06;94697.66;;;-3.02;100.00
51829;BME280;37881;48.024;8.774;2024-01-11T10:44:35;94697.16;;;-3.44;100.00
51829;BME280;37881;48.024;8.774;2024-01-11T10:47:03;94683.44;;;-3.02;100.00
51829;BME280;37881;48.024;8.774;2024-01-11T10:49:38;94680.06;;;-2.68;100.00
51829;BME280;37881;48.024;8.774;2024-01-11T10:52:07;94685.59;;;-3.13;100.00
51829;BME280;37881;48.024;8.774;2024-01-11T10:54:34;94679.25;;;-2.86;100.00
51829;BME280;37881;48.024;8.774;2024-01-11T10:57:02;94671.63;;;-1.18;100.00
51829;BME280;37881;48.024;8.774;2024-01-11T10:59:32;94662.72;;;-1.10;100.00
51829;BME280;37881;48.024;8.774;2024-01-11T11:02:05;94665.84;;;0.57;100.00
51829;BME280;37881;48.024;8.774;2024-01-11T11:04:40;94657.09;;;0.72;100.00
51829;BME280;37881;48.024;8.774;2024-01-11T11:07:09;94663.31;;;1.96;100.00
51829;BME280;37881;48.024;8.774;2024-01-11T11:09:37;94661.00;;;1.08;100.00
51829;BME280;37881;48.024;8.774;2024-01-11T11:12:05;94653.34;;;2.12;91.02
51829;BME280;37881;48.024;8.774;2024-01-11T11:14:34;94661.09;;;1.49;93.36
51829;BME280;37881;48.024;8.774;2024-01-11T11:17:02;94651.19;;;3.06;91.47
51829;BME280;37881;48.024;8.774;2024-01-11T11:19:29;94637.28;;;5.38;80.63
51829;BME280;37881;48.024;8.774;2024-01-11T11:21:57;94633.69;;;7.60;61.90
51829;BME280;37881;48.024;8.774;2024-01-11T11:24:23;94639.09;;;8.08;58.25
51829;BME280;37881;48.024;8.774;2024-01-11T11:26:50;94638.06;;;7.72;54.80
51829;BME280;37881;48.024;8.774;2024-01-11T11:29:17;94640.13;;;6.93;57.35
51829;BME280;37881;48.024;8.774;2024-01-11T11:31:45;94644.22;;;1.52;83.00
51829;BME280;37881;48.024;8.774;2024-01-11T11:34:14;94659.47;;;2.53;93.71
51829;BME280;37881;48.024;8.774;2024-01-11T11:36:41;94657.81;;;0.15;100.00
51829;BME280;37881;48.024;8.774;2024-01-11T11:39:11;94651.59;;;0.02;100.00
51829;BME280;37881;48.024;8.774;2024-01-11T11:41:41;94645.06;;;0.70;100.00
51829;BME280;37881;48.024;8.774;2024-01-11T11:44:12;94636.75;;;2.14;100.00
51829;BME280;37881;48.024;8.774;2024-01-11T11:46:40;94638.97;;;2.24;95.84
51829;BME280;37881;48.024;8.774;2024-01-11T11:49:07;94646.53;;;0.79;100.00
51829;BME280;37881;48.024;8.774;2024-01-11T11:51:39;94645.38;;;2.60;100.00
51829;BME280;37881;48.024;8.774;2024-01-11T11:54:08;94647.47;;;1.20;100.00
51829;BME280;37881;48.024;8.774;2024-01-11T11:56:37;94638.97;;;1.84;99.76
51829;BME280;37881;48.024;8.774;2024-01-11T11:59:04;94637.09;;;0.98;100.00
51829;BME280;37881;48.024;8.774;2024-01-11T12:01:33;94635.84;;;-1.27;100.00
51829;BME280;37881;48.024;8.774;2024-01-11T12:04:01;94630.53;;;-0.26;100.00
51829;BME280;37881;48.024;8.774;2024-01-11T12:06:29;94644.16;;;-1.11;100.00
51829;BME280;37881;48.024;8.774;2024-01-11T12:08:56;94638.91;;;-1.46;100.00
51829;BME280;37881;48.024;8.774;2024-01-11T12:11:25;94634.78;;;-1.05;100.00
51829;BME280;37881;48.024;8.774;2024-01-11T12:13:52;94641.47;;;-2.81;100.00
51829;BME280;37881;48.024;8.774;2024-01-11T12:16:21;94645.16;;;-1.89;100.00
51829;BME280;37881;48.024;8.774;2024-01-11T12:18:49;94636.97;;;-2.45;100.00
51829;BME280;37881;48.024;8.774;2024-01-11T12:21:16;94643.28;;;-1.97;100.00
51829;BME280;37881;48.024;8.774;2024-01-11T12:23:43;94634.75;;;-2.43;100.00
51829;BME280;37881;48.024;8.774;2024-01-11T12:26:11;94658.03;;;-3.36;100.00
51829;BME280;37881;48.024;8.774;2024-01-11T12:28:42;94656.91;;;-3.44;100.00
51829;BME280;37881;48.024;8.774;2024-01-11T12:31:11;94653.50;;;-2.78;100.00
51829;BME280;37881;48.024;8.774;2024-01-11T12:33:39;94658.47;;;-2.36;100.00
51829;BME280;37881;48.024;8.774;2024-01-11T12:36:08;94669.00;;;-2.66;100.00
51829;BME280;37881;48.024;8.774;2024-01-11T12:38:35;94676.50;;;-2.28;100.00
51829;BME280;37881;48.024;8.774;2024-01-11T12:41:03;94682.22;;;-2.21;100.00
51829;BME280;37881;48.024;8.774;2024-01-11T12:43:31;94676.84;;;-2.21;100.00
51829;BME280;37881;48.024;8.774;2024-01-11T12:45:58;94673.13;;;-2.60;100.00
51829;BME280;37881;48.024;8.774;2024-01-11T12:48:25;94676.41;;;-2.81;100.00
51829;BME280;37881;48.024;8.774;2024-01-11T12:50:52;94670.16;;;-3.38;100.00